Terminal Aerodrome Forecast
Issued by NWS

Home | Current Version | Previous Version | Text Only | Print | Product List | Glossary On
Versions: 1 2 3 4 5 6 7 8 9 10 11 12 13 14 15 16 17 18 19 20 21 22
000
FTUS42 KTBW 031139
TAFRSW
TAF
KRSW 031139Z 0312/0412 07007KT P6SM BKN005 BKN060 OVC250
     FM031500 11005KT P6SM VCSH BKN020 OVC060
     FM031800 16007KT P6SM VCTS BKN030CB OVC060
     FM032100 19006KT 6SM SHRA VCTS BKN020CB OVC050
     FM040000 21005KT 6SM SHRA VCTS BKN020CB OVC040
     FM040900 11005KT 5SM SHRA VCTS BKN015CB OVC040=

USA.gov is the U.S. government's official web portal to all federal, state and local government web resources and services.